Time;durP1;ratioP1;P1;durP2;ratioP2;P2;SDS_P1;SDS_P2;PMS_P1;PMS_P2;Temp;Humidity;BMP_temperature;BMP_pressure;BME280_temperature;BME280_humidity;BME280_pressure;Samples;Min_cycle;Max_cycle;Signal;HPM_P1;HPM_P2
2023/10/31 07:14:55;;;;;;;6.03;2.78;;;11.00;99.90;;;;;;4280666;23;20543;-93
2023/10/31 08:16:36;;;;;;;5.47;1.15;;;11.00;99.90;;;;;;4880088;23;20270;-95
2023/10/31 08:19:14;;;;;;;;;;;;;;;;;;;;;
2023/10/31 08:27:21;;;;;;;2.67;1.42;;;11.20;99.90;;;;;;4066465;29;20364;-96
2023/10/31 08:35:43;;;;;;;2.47;1.30;;;11.50;99.90;;;;;;4789563;23;20221;-96
2023/10/31 09:19:59;;;;;;;1.70;1.30;;;12.90;99.90;;;;;;4525553;23;20244;-95
2023/10/31 09:22:05;;;;;;;2.55;1.33;;;12.80;99.90;;;;;;4091654;29;20199;-94
2023/10/31 09:25:12;;;;;;;;;;;;;;;;;;;;;
2023/10/31 09:37:53;;;;;;;4.80;1.60;;;12.00;99.90;;;;;;4567866;23;20260;-96
2023/10/31 09:42:07;;;;;;;1.52;1.10;;;12.10;99.90;;;;;;4909305;23;20182;-95
2023/10/31 09:47:23;;;;;;;;;;;;;;;;;;;;;
2023/10/31 09:57:11;;;;;;;6.57;1.30;;;12.10;99.90;;;;;;4176936;23;20249;-95
2023/10/31 09:59:26;;;;;;;2.97;1.48;;;11.80;99.90;;;;;;4066738;29;20213;-95
2023/10/31 10:04:40;;;;;;;4.47;1.20;;;11.80;99.90;;;;;;4113197;28;20186;-95
2023/10/31 10:07:27;;;;;;;5.95;1.73;;;11.90;99.90;;;;;;4096537;29;20651;-94
2023/10/31 10:10:31;;;;;;;2.53;1.17;;;12.00;99.90;;;;;;4111934;29;20207;-95
2023/10/31 10:12:33;;;;;;;48.78;1.98;;;12.00;99.90;;;;;;4096427;29;20587;-95
2023/10/31 10:14:50;;;;;;;2.05;1.33;;;11.90;99.90;;;;;;4094892;29;20187;-95
2023/10/31 10:16:53;;;;;;;5.00;1.38;;;12.00;99.90;;;;;;4108480;29;20218;-96
2023/10/31 10:19:28;;;;;;;4.43;1.92;;;11.90;99.90;;;;;;4114638;29;20195;-95
2023/10/31 10:21:59;;;;;;;3.78;1.60;;;11.90;99.90;;;;;;4100821;28;20282;-94
2023/10/31 10:24:19;;;;;;;2.45;1.48;;;11.80;99.90;;;;;;4087791;29;20195;-95
2023/10/31 10:26:43;;;;;;;2.35;1.25;;;12.00;99.90;;;;;;4104520;29;20199;-95
2023/10/31 10:28:50;;;;;;;2.17;1.38;;;12.00;99.90;;;;;;4100607;29;20212;-93
2023/10/31 10:30:59;;;;;;;4.47;1.20;;;11.90;99.90;;;;;;4101783;29;20172;-96
2023/10/31 10:33:03;;;;;;;2.60;1.30;;;12.00;99.90;;;;;;4098006;29;20187;-96
2023/10/31 10:35:07;;;;;;;6.68;2.05;;;11.90;99.90;;;;;;4097454;29;20182;-95
2023/10/31 10:37:26;;;;;;;3.17;1.42;;;11.80;99.90;;;;;;4112968;29;20230;-95
2023/10/31 10:39:43;;;;;;;3.72;1.45;;;11.80;99.90;;;;;;4092376;29;20647;-96
2023/10/31 10:41:55;;;;;;;8.15;1.70;;;11.60;99.90;;;;;;4113214;28;20249;-96
2023/10/31 10:44:47;;;;;;;3.72;1.23;;;11.70;99.90;;;;;;4081444;29;20188;-95
2023/10/31 10:46:57;;;;;;;2.60;1.67;;;11.70;99.90;;;;;;4096422;29;20199;-96
2023/10/31 10:49:11;;;;;;;2.53;1.52;;;11.90;99.90;;;;;;4097693;29;20227;-96
2023/10/31 10:51:47;;;;;;;5.13;1.40;;;12.10;99.90;;;;;;4094929;29;20187;-95
2023/10/31 10:55:01;;;;;;;6.15;1.50;;;12.00;99.90;;;;;;4107025;28;20235;-94
2023/10/31 10:58:41;;;;;;;4.97;1.77;;;11.90;99.90;;;;;;4082851;29;20204;-96
2023/10/31 11:01:48;;;;;;;3.42;2.03;;;11.80;99.90;;;;;;4127504;28;20182;-96
2023/10/31 11:04:07;;;;;;;3.50;1.25;;;11.90;99.90;;;;;;4052732;29;20193;-94
2023/10/31 11:06:20;;;;;;;5.32;1.55;;;12.00;99.90;;;;;;4051378;29;20189;-95
2023/10/31 11:08:30;;;;;;;3.00;1.77;;;12.20;99.90;;;;;;4063637;29;20193;-95
2023/10/31 11:10:45;;;;;;;4.85;1.85;;;12.20;99.90;;;;;;4052273;29;20250;-95
2023/10/31 11:13:59;;;;;;;4.63;2.25;;;12.40;99.90;;;;;;4026861;29;20189;-95
2023/10/31 11:16:13;;;;;;;3.03;1.65;;;12.40;99.90;;;;;;4063361;29;20244;-95
2023/10/31 11:18:23;;;;;;;2.70;1.38;;;12.40;99.90;;;;;;4051228;29;20189;-95
2023/10/31 11:21:00;;;;;;;2.78;1.52;;;12.50;99.90;;;;;;4076283;29;20289;-96
2023/10/31 11:23:24;;;;;;;7.15;2.15;;;12.40;99.90;;;;;;4095747;29;20168;-95
2023/10/31 11:25:44;;;;;;;5.57;2.13;;;12.50;99.90;;;;;;4096134;29;20187;-96
2023/10/31 11:28:11;;;;;;;4.55;1.92;;;12.50;99.90;;;;;;4091261;29;20199;-96
2023/10/31 11:30:43;;;;;;;4.88;1.90;;;12.40;99.90;;;;;;4094444;29;20211;-95
2023/10/31 11:32:54;;;;;;;4.80;1.77;;;12.40;99.90;;;;;;4095792;29;20196;-94
2023/10/31 11:39:26;;;;;;;6.45;1.92;;;12.30;99.90;;;;;;4117943;28;20253;-95
2023/10/31 11:41:55;;;;;;;2.83;1.30;;;12.40;99.90;;;;;;4097260;29;20215;-95
2023/10/31 11:44:29;;;;;;;1.65;1.15;;;12.30;99.90;;;;;;4301887;23;20290;-95
2023/10/31 11:47:21;;;;;;;3.78;1.45;;;12.40;99.90;;;;;;4113617;28;20174;-96
2023/10/31 11:50:12;;;;;;;4.28;2.20;;;12.30;99.90;;;;;;4109892;29;20250;-96
2023/10/31 11:52:17;;;;;;;5.80;2.40;;;12.20;99.90;;;;;;4094826;29;20183;-93
2023/10/31 11:54:26;;;;;;;5.32;1.98;;;12.00;99.90;;;;;;4108741;28;20655;-94
2023/10/31 11:57:16;;;;;;;4.18;2.60;;;12.00;99.90;;;;;;4117699;28;20229;-94
2023/10/31 11:59:22;;;;;;;11.88;5.68;;;11.90;99.90;;;;;;4111047;29;20199;-96
2023/10/31 12:01:26;;;;;;;5.30;2.75;;;11.80;99.90;;;;;;4112119;28;20183;-95
2023/10/31 12:04:12;;;;;;;7.07;2.00;;;11.80;99.90;;;;;;4110275;28;20214;-96
2023/10/31 12:08:03;;;;;;;;;;;;;;;;;;;;;
2023/10/31 12:10:50;;;;;;;3.15;1.80;;;12.00;99.90;;;;;;4461151;23;20234;-96
2023/10/31 12:13:16;;;;;;;3.70;1.95;;;12.10;99.90;;;;;;4123997;28;20191;-96
2023/10/31 12:15:50;;;;;;;5.13;1.85;;;12.20;99.90;;;;;;4125838;28;20182;-95
2023/10/31 12:18:36;;;;;;;4.88;1.98;;;12.40;99.90;;;;;;4128803;28;20202;-96
2023/10/31 12:21:10;;;;;;;6.30;2.13;;;12.40;99.90;;;;;;4123419;28;20186;-95
2023/10/31 12:23:19;;;;;;;3.63;1.98;;;12.40;99.90;;;;;;4080112;29;20184;-95
2023/10/31 12:25:54;;;;;;;2.67;1.75;;;12.50;99.90;;;;;;4092071;29;20195;-95
2023/10/31 12:30:46;;;;;;;3.97;1.70;;;12.90;99.90;;;;;;4489957;23;20228;-96
2023/10/31 12:33:42;;;;;;;3.63;1.83;;;12.90;99.90;;;;;;4131256;28;20204;-96
2023/10/31 12:42:21;;;;;;;4.68;1.42;;;12.80;99.90;;;;;;4642575;23;20280;-94
2023/10/31 13:01:10;;;;;;;1.67;0.98;;;12.60;99.90;;;;;;4131698;23;20276;-95
2023/10/31 13:05:46;;;;;;;3.08;0.80;;;12.80;99.90;;;;;;4231392;23;20230;-94
2023/10/31 13:07:52;;;;;;;2.63;1.05;;;12.80;99.90;;;;;;4109249;29;20302;-95
2023/10/31 13:10:03;;;;;;;0.82;0.40;;;12.90;99.90;;;;;;4112465;28;20203;-96
2023/10/31 13:13:12;;;;;;;3.88;1.42;;;12.70;99.90;;;;;;4089864;29;20191;-96
2023/10/31 13:16:03;;;;;;;1.60;1.00;;;12.70;99.90;;;;;;4099664;28;20279;-96
2023/10/31 13:21:05;;;;;;;6.47;1.15;;;12.60;99.90;;;;;;4106813;28;20179;-94
2023/10/31 13:44:51;;;;;;;1.27;0.82;;;13.70;99.90;;;;;;4099362;29;20223;-96
2023/10/31 13:54:27;;;;;;;;;;;;;;;;;;;;;
2023/10/31 14:43:07;;;;;;;6.95;0.88;;;13.40;99.90;;;;;;4635273;23;20344;-94
2023/10/31 14:46:07;;;;;;;1.42;0.90;;;13.50;99.90;;;;;;4075076;28;20192;-96
2023/10/31 14:51:35;;;;;;;3.30;0.93;;;13.50;99.90;;;;;;4653451;23;20248;-94
2023/10/31 14:53:42;;;;;;;1.27;1.00;;;13.70;99.90;;;;;;4087651;29;20201;-96
2023/10/31 14:56:29;;;;;;;;;;;;;;;;;;;;;
2023/10/31 15:04:54;;;;;;;1.15;0.60;;;13.50;99.90;;;;;;4513203;23;20290;-96
2023/10/31 15:42:48;;;;;;;0.88;0.40;;;13.10;99.90;;;;;;4600788;23;20567;-95
2023/10/31 15:45:19;;;;;;;2.47;0.70;;;13.20;99.90;;;;;;4295434;23;20202;-95
2023/10/31 15:55:32;;;;;;;1.40;1.00;;;13.30;99.90;;;;;;4352835;23;20320;-95
2023/10/31 15:57:48;;;;;;;3.53;1.17;;;13.30;99.90;;;;;;4112803;28;20240;-95
2023/10/31 16:00:25;;;;;;;1.23;0.85;;;13.20;99.90;;;;;;4110740;28;20242;-95
2023/10/31 16:03:00;;;;;;;0.63;0.47;;;13.20;99.90;;;;;;4113439;29;20187;-96
2023/10/31 16:05:26;;;;;;;6.35;1.33;;;13.10;99.90;;;;;;4128015;28;20206;-95
2023/10/31 16:07:39;;;;;;;5.57;1.60;;;13.10;99.90;;;;;;4131352;28;20150;-96
2023/10/31 16:09:59;;;;;;;3.00;0.85;;;13.10;99.90;;;;;;4109359;28;20273;-96
2023/10/31 16:12:42;;;;;;;13.85;1.50;;;13.10;99.90;;;;;;4492517;23;20234;-96
2023/10/31 16:17:48;;;;;;;3.78;1.00;;;13.00;99.90;;;;;;4471137;23;20253;-96
2023/10/31 16:20:30;;;;;;;5.85;0.90;;;12.90;99.90;;;;;;4088001;29;20258;-96
2023/10/31 16:23:20;;;;;;;1.85;0.63;;;12.60;99.90;;;;;;4096149;29;20188;-95
2023/10/31 16:28:56;;;;;;;4.80;1.27;;;12.70;99.90;;;;;;4461985;23;20233;-95
2023/10/31 16:34:15;;;;;;;5.93;1.10;;;12.80;99.90;;;;;;4050000;29;20196;-95
2023/10/31 16:37:20;;;;;;;1.83;0.50;;;12.90;99.90;;;;;;4030476;29;20230;-95
2023/10/31 16:42:50;;;;;;;7.65;1.15;;;13.00;99.90;;;;;;3989128;29;20182;-96
2023/10/31 16:48:35;;;;;;;;;;;;;;;;;;;;;
2023/10/31 16:51:22;;;;;;;2.25;0.95;;;13.20;99.90;;;;;;4050554;29;20188;-95
2023/10/31 16:53:38;;;;;;;3.35;0.82;;;13.10;99.90;;;;;;4049224;29;20185;-95
2023/10/31 16:56:32;;;;;;;1.45;0.52;;;13.00;99.90;;;;;;4033337;29;20194;-96
2023/10/31 16:58:50;;;;;;;4.03;1.42;;;13.00;99.90;;;;;;4005280;29;20210;-96
2023/10/31 17:03:39;;;;;;;3.15;1.10;;;13.10;99.90;;;;;;4092911;29;20199;-96
2023/10/31 17:05:58;;;;;;;3.03;0.85;;;13.20;99.90;;;;;;4080492;29;20180;-96
2023/10/31 17:08:41;;;;;;;16.40;1.40;;;13.20;99.90;;;;;;4073379;29;20192;-96
2023/10/31 17:11:27;;;;;;;4.40;1.10;;;13.20;99.90;;;;;;4107760;28;20183;-96
2023/10/31 18:04:31;;;;;;;1.73;0.70;;;13.00;99.90;;;;;;4256472;23;20321;-94
2023/10/31 18:07:15;;;;;;;4.22;1.27;;;13.00;99.90;;;;;;4129903;28;20232;-95
2023/10/31 18:09:55;;;;;;;5.95;1.40;;;13.00;99.90;;;;;;4129205;28;20239;-93
2023/10/31 18:24:43;;;;;;;1.58;0.80;;;12.90;99.90;;;;;;4902865;23;20200;-94
2023/10/31 18:27:11;;;;;;;3.28;1.10;;;12.90;99.90;;;;;;4122303;28;20602;-94
2023/10/31 18:35:07;;;;;;;1.73;0.70;;;13.00;99.90;;;;;;4122710;28;20221;-95
2023/10/31 18:37:32;;;;;;;5.28;1.42;;;13.00;99.90;;;;;;4134995;28;20229;-96
2023/10/31 18:40:21;;;;;;;;;;;;;;;;;;;;;
2023/10/31 18:43:10;;;;;;;4.82;0.60;;;12.80;99.90;;;;;;4121230;28;20245;-95
2023/10/31 18:45:17;;;;;;;2.55;0.90;;;12.70;99.90;;;;;;4112910;28;20190;-93
2023/10/31 18:47:32;;;;;;;1.65;0.60;;;12.80;99.90;;;;;;4112588;28;20206;-96
2023/10/31 18:53:27;;;;;;;3.35;0.50;;;12.70;99.90;;;;;;4001602;29;20534;-94
2023/10/31 18:56:21;;;;;;;4.63;0.98;;;12.80;99.90;;;;;;3990220;29;20194;-96
2023/10/31 18:59:26;;;;;;;1.70;0.50;;;12.70;99.90;;;;;;3975189;29;20276;-95
2023/10/31 19:02:03;;;;;;;4.63;1.23;;;12.80;99.90;;;;;;3950315;29;20201;-94
2023/10/31 19:04:57;;;;;;;2.85;0.52;;;12.90;99.90;;;;;;3933481;30;20211;-96
2023/10/31 19:07:57;;;;;;;1.17;0.70;;;12.80;99.90;;;;;;3933784;30;20198;-96
2023/10/31 19:10:06;;;;;;;1.60;0.70;;;12.70;99.90;;;;;;3929681;29;20256;-94
2023/10/31 19:12:36;;;;;;;;;;;;;;;;;;;;;
2023/10/31 19:14:48;;;;;;;4.90;0.68;;;12.80;99.90;;;;;;3999902;29;20650;-96
2023/10/31 19:17:33;;;;;;;2.65;1.08;;;12.90;99.90;;;;;;4016109;29;20222;-96
2023/10/31 19:19:46;;;;;;;1.00;0.55;;;12.80;99.90;;;;;;3998632;29;20219;-95
2023/10/31 19:22:44;;;;;;;6.00;1.10;;;12.70;99.90;;;;;;3984436;29;20727;-95
2023/10/31 19:25:25;;;;;;;3.50;1.38;;;12.70;99.90;;;;;;3999779;29;20281;-95
2023/10/31 19:29:57;;;;;;;4.80;1.17;;;12.90;99.90;;;;;;4596288;23;20220;-96
2023/10/31 19:32:52;;;;;;;2.20;0.50;;;12.80;99.90;;;;;;4127345;28;20195;-95
2023/10/31 19:35:28;;;;;;;1.60;0.70;;;12.80;99.90;;;;;;4097787;28;20660;-95
2023/10/31 19:38:04;;;;;;;3.30;0.70;;;12.80;99.90;;;;;;4069243;29;20241;-96
2023/10/31 19:40:35;;;;;;;4.30;0.95;;;12.80;99.90;;;;;;4047073;29;20219;-96
2023/10/31 19:46:24;;;;;;;5.15;1.15;;;12.80;99.90;;;;;;4084145;29;20184;-96
2023/10/31 19:49:12;;;;;;;2.75;0.65;;;12.90;99.90;;;;;;4097072;29;20211;-95
2023/10/31 19:51:23;;;;;;;5.03;0.77;;;13.00;99.90;;;;;;4052358;29;20221;-96
2023/10/31 19:54:12;;;;;;;2.30;0.80;;;13.10;99.90;;;;;;4061425;29;20267;-96
2023/10/31 19:59:39;;;;;;;1.90;0.82;;;13.00;99.90;;;;;;4282581;23;20233;-96
2023/10/31 20:01:53;;;;;;;23.98;2.60;;;13.00;99.90;;;;;;4021199;29;20187;-96
2023/10/31 20:10:10;;;;;;;4.30;1.05;;;12.90;99.90;;;;;;4577236;23;20222;-96
2023/10/31 20:15:14;;;;;;;5.70;1.85;;;12.90;99.90;;;;;;4204777;23;20264;-95
2023/10/31 20:17:47;;;;;;;8.15;1.88;;;13.00;99.90;;;;;;4114042;28;20233;-95
2023/10/31 20:23:11;;;;;;;3.70;0.80;;;13.00;99.90;;;;;;4373592;23;20216;-96
2023/10/31 20:25:37;;;;;;;0.65;0.50;;;13.00;99.90;;;;;;4131524;28;20178;-95
2023/10/31 20:28:51;;;;;;;5.10;1.27;;;13.00;99.90;;;;;;4113813;28;20184;-96
2023/10/31 20:30:53;;;;;;;1.17;0.68;;;12.90;99.90;;;;;;4080293;29;20207;-94
2023/10/31 20:33:54;;;;;;;;;;;;;;;;;;;;;
2023/10/31 20:36:09;;;;;;;3.42;0.80;;;13.00;99.90;;;;;;4057819;29;22163;-95
2023/10/31 20:38:16;;;;;;;3.60;0.60;;;13.10;99.90;;;;;;4214692;23;20235;-94
2023/10/31 20:41:08;;;;;;;6.90;0.77;;;13.00;99.90;;;;;;4103865;28;20182;-95
2023/10/31 20:43:35;;;;;;;4.00;0.98;;;13.20;99.90;;;;;;4059889;29;20188;-94
2023/10/31 20:46:18;;;;;;;;;;;;;;;;;;;;;
2023/10/31 21:56:09;;;;;;;5.85;1.40;;;12.80;99.90;;;;;;4698091;23;20266;-94
2023/10/31 22:07:56;;;;;;;1.77;1.00;;;12.90;99.90;;;;;;4359509;23;20237;-94
2023/10/31 22:10:29;;;;;;;3.33;1.05;;;13.00;99.90;;;;;;4087192;29;20612;-95
2023/10/31 22:16:48;;;;;;;0.50;0.40;;;12.90;99.90;;;;;;4109797;28;20220;-94
2023/10/31 22:19:46;;;;;;;3.88;1.02;;;12.80;99.90;;;;;;4108284;29;20206;-95
2023/10/31 22:27:07;;;;;;;;;;;;;;;;;;;;;
2023/10/31 22:30:11;;;;;;;3.75;0.88;;;12.90;99.90;;;;;;3987497;29;20204;-95
2023/10/31 22:36:26;;;;;;;4.20;0.93;;;12.90;99.90;;;;;;3987341;29;20199;-94
2023/10/31 22:45:45;;;;;;;4.28;1.10;;;12.70;99.90;;;;;;4082469;29;20256;-96
2023/10/31 22:47:49;;;;;;;3.08;0.20;;;12.60;99.90;;;;;;4058920;29;20189;-96
2023/10/31 22:50:10;;;;;;;2.05;0.85;;;12.70;99.90;;;;;;4052168;29;20598;-96
2023/10/31 22:52:23;;;;;;;0.73;0.38;;;12.70;99.90;;;;;;4068232;29;20217;-95
2023/10/31 22:55:10;;;;;;;0.45;0.40;;;12.70;99.90;;;;;;4069212;29;20260;-95
2023/10/31 22:57:32;;;;;;;1.30;0.20;;;12.70;99.90;;;;;;4618935;23;20226;-95
2023/10/31 23:00:43;;;;;;;;;;;;;;;;;;;;;
2023/10/31 23:02:48;;;;;;;0.40;0.20;;;12.50;99.90;;;;;;4113412;28;20206;-96
2023/10/31 23:05:20;;;;;;;0.55;0.30;;;12.50;99.90;;;;;;4136842;28;20268;-95
2023/10/31 23:08:01;;;;;;;2.40;0.45;;;12.50;99.90;;;;;;4133181;28;20166;-95
2023/10/31 23:10:41;;;;;;;1.85;0.35;;;12.50;99.90;;;;;;4107489;28;20213;-95
2023/10/31 23:16:34;;;;;;;3.10;0.73;;;12.60;99.90;;;;;;4059640;29;20216;-95
2023/10/31 23:19:01;;;;;;;1.67;0.40;;;12.60;99.90;;;;;;4059069;29;20217;-95
2023/10/31 23:22:02;;;;;;;1.17;0.20;;;12.50;99.90;;;;;;4105294;28;20205;-95
2023/10/31 23:34:47;;;;;;;1.17;0.60;;;12.40;99.90;;;;;;4480914;23;20259;-96
